Time;durP1;ratioP1;P1;durP2;ratioP2;P2;SDS_P1;SDS_P2;PMS_P1;PMS_P2;Temp;Humidity;BMP_temperature;BMP_pressure;BME280_temperature;BME280_humidity;BME280_pressure;Samples;Min_cycle;Max_cycle;Signal;HPM_P1;HPM_P2
2022/07/26 00:01:34;;;;;;;9.35;2.72;;;;;;;24.84;43.86;99540.19;3425212;85;33224;-89
2022/07/26 00:06:35;;;;;;;6.05;3.05;;;;;;;24.77;44.34;99536.41;3411759;85;98595;-91
2022/07/26 00:11:36;;;;;;;8.35;3.67;;;;;;;24.74;44.87;99526.78;3489023;83;98564;-91
2022/07/26 00:16:38;;;;;;;6.73;3.20;;;;;;;24.71;44.76;99543.23;3439605;82;98703;-90
2022/07/26 00:21:39;;;;;;;4.65;2.77;;;;;;;24.66;45.38;99543.31;3442930;84;98663;-92
2022/07/26 00:26:40;;;;;;;7.37;2.80;;;;;;;24.63;46.18;99529.47;3435548;84;98687;-91
2022/07/26 00:31:41;;;;;;;6.73;3.30;;;;;;;24.58;46.94;99526.70;3442978;84;31944;-90
2022/07/26 00:36:43;;;;;;;6.92;3.00;;;;;;;24.54;47.36;99522.54;3439443;84;98401;-91
2022/07/26 00:41:44;;;;;;;6.42;3.22;;;;;;;24.49;47.83;99523.24;3447065;84;98605;-91
2022/07/26 00:46:45;;;;;;;8.23;3.58;;;;;;;24.41;48.00;99515.86;3435072;84;98680;-90
2022/07/26 00:51:46;;;;;;;6.47;3.25;;;;;;;24.34;48.62;99507.84;3493487;83;98687;-90
2022/07/26 00:56:47;;;;;;;8.37;3.17;;;;;;;24.27;49.00;99515.93;3441289;84;98622;-90
2022/07/26 01:01:48;;;;;;;6.60;2.95;;;;;;;24.18;49.44;99514.03;3445407;84;32249;-91
2022/07/26 01:06:50;;;;;;;5.83;2.95;;;;;;;24.09;49.66;99519.02;3444151;84;98777;-91
2022/07/26 01:11:51;;;;;;;5.55;2.95;;;;;;;24.01;50.26;99523.48;3445666;84;98549;-89
2022/07/26 01:16:53;;;;;;;7.75;2.85;;;;;;;23.94;50.60;99550.61;3437104;84;99224;-90
2022/07/26 01:21:54;;;;;;;12.25;3.00;;;;;;;23.80;49.47;99599.14;3448642;84;99102;-89
2022/07/26 01:26:55;;;;;;;6.40;2.87;;;;;;;23.60;48.70;99602.65;3510101;81;98891;-89
2022/07/26 01:31:56;;;;;;;7.70;2.87;;;;;;;23.45;48.96;99594.88;3546215;81;98685;-87
2022/07/26 01:36:58;;;;;;;8.68;3.20;;;;;;;23.32;49.35;99599.98;3544935;82;98457;-90
2022/07/26 01:41:59;;;;;;;7.00;3.90;;;;;;;23.25;50.07;99610.81;3545932;81;98536;-89
2022/07/26 01:47:00;;;;;;;8.30;5.10;;;;;;;23.22;50.94;99617.41;3540661;81;98749;-89
2022/07/26 01:52:00;;;;;;;14.65;6.53;;;;;;;23.18;51.36;99608.39;3557937;82;98651;-92
2022/07/26 01:57:01;;;;;;;12.70;7.58;;;;;;;23.12;52.09;99623.72;3535342;82;99142;-88
2022/07/26 02:02:03;;;;;;;14.70;10.23;;;;;;;23.06;52.57;99622.05;3547511;81;99269;-89
2022/07/26 02:07:04;;;;;;;13.20;10.05;;;;;;;22.99;53.48;99637.22;3523025;81;99120;-89
2022/07/26 02:12:05;;;;;;;16.02;10.72;;;;;;;22.92;54.70;99641.80;3552264;81;98853;-89
2022/07/26 02:17:07;;;;;;;17.15;12.15;;;;;;;22.83;56.09;99641.86;3549307;81;98958;-89
2022/07/26 02:22:08;;;;;;;16.50;13.25;;;;;;;22.74;57.90;99656.58;3552359;81;99009;-94
2022/07/26 02:27:09;;;;;;;19.15;12.37;;;;;;;22.52;61.59;99685.55;3544424;81;98996;-86
2022/07/26 02:32:10;;;;;;;15.88;11.75;;;;;;;22.52;61.59;99685.55;3551882;81;99090;-89
2022/07/26 02:37:11;;;;;;;12.53;10.32;;;;;;;22.46;62.93;99680.44;3541039;81;98705;-91
2022/07/26 02:42:12;;;;;;;15.65;11.93;;;;;;;22.36;63.88;99679.69;3547861;81;98853;-91
2022/07/26 02:47:13;;;;;;;18.32;11.73;;;;;;;22.29;65.36;99686.25;3538011;81;99104;-83
2022/07/26 02:52:14;;;;;;;17.23;12.37;;;;;;;22.26;65.91;99684.38;3550418;80;99504;-88
2022/07/26 02:57:15;;;;;;;15.83;10.35;;;;;;;22.24;66.47;99693.91;3546955;81;99474;-82
2022/07/26 03:02:16;;;;;;;14.43;11.05;;;;;;;22.21;67.60;99700.45;3544337;81;98955;-91
2022/07/26 03:07:17;;;;;;;15.28;11.08;;;;;;;22.18;67.26;99704.97;3546617;82;98717;-86
2022/07/26 03:12:18;;;;;;;14.83;10.43;;;;;;;22.15;68.26;99705.14;3557791;82;98869;-87
2022/07/26 03:17:19;;;;;;;15.43;11.18;;;;;;;22.12;68.03;99716.67;3541582;81;99034;-84
2022/07/26 03:22:20;;;;;;;17.73;11.57;;;;;;;22.14;68.62;99725.40;3555304;81;98992;-86
2022/07/26 03:27:21;;;;;;;14.23;10.05;;;;;;;22.11;69.33;99726.33;3548440;81;99599;-86
2022/07/26 03:32:21;;;;;;;14.25;9.75;;;;;;;22.08;69.78;99740.52;3554479;81;99097;-86
2022/07/26 03:37:23;;;;;;;15.95;9.85;;;;;;;22.08;69.79;99745.48;3550910;81;98922;-86
2022/07/26 03:42:24;;;;;;;15.08;10.65;;;;;;;22.05;70.22;99728.22;3560679;81;98706;-84
2022/07/26 03:47:25;;;;;;;12.70;8.25;;;;;;;22.08;70.80;99776.30;3543992;81;99139;-86
2022/07/26 03:52:26;;;;;;;14.65;8.75;;;;;;;22.10;70.33;99792.66;3496827;82;98856;-86
2022/07/26 03:57:27;;;;;;;13.72;7.70;;;;;;;22.13;70.20;99772.87;3505602;83;98872;-84
2022/07/26 04:02:28;;;;;;;13.45;8.35;;;;;;;22.14;69.96;99787.67;3497299;83;98918;-85
2022/07/26 04:07:29;;;;;;;11.93;6.80;;;;;;;22.13;69.96;99801.54;3502661;81;98591;-86
2022/07/26 04:12:29;;;;;;;11.85;7.83;;;;;;;22.11;69.78;99797.80;3492541;83;97916;-85
2022/07/26 04:17:40;;;;;;;12.45;7.92;;;;;;;22.14;70.14;99787.67;3507932;81;98859;-86
2022/07/26 04:22:41;;;;;;;10.08;6.83;;;;;;;22.16;70.11;99797.78;3508852;82;99213;-85
2022/07/26 04:27:42;;;;;;;11.15;6.87;;;;;;;22.13;70.68;99796.70;3511534;82;98920;-84
2022/07/26 04:32:44;;;;;;;11.60;7.07;;;;;;;22.05;70.97;99808.09;3516513;82;99215;-87
2022/07/26 04:37:46;;;;;;;10.63;7.08;;;;;;;22.03;70.92;99820.40;3523199;82;98858;-85
2022/07/26 04:42:49;;;;;;;9.38;5.40;;;;;;;22.05;71.04;99828.31;3497842;83;98765;-86
2022/07/26 04:47:50;;;;;;;8.95;5.62;;;;;;;22.02;71.10;99827.88;3503751;83;98503;-89
2022/07/26 04:52:51;;;;;;;7.97;5.03;;;;;;;21.98;71.15;99837.84;3505149;83;98721;-88
2022/07/26 04:57:52;;;;;;;10.23;5.93;;;;;;;21.98;71.13;99838.45;3482673;83;98776;-88
2022/07/26 05:02:57;;;;;;;11.27;5.43;;;;;;;21.97;71.55;99836.26;3532784;82;98490;-87
2022/07/26 05:08:02;;;;;;;8.18;4.80;;;;;;;21.97;71.63;99848.11;3496903;81;98624;-86
2022/07/26 05:13:05;;;;;;;9.65;4.78;;;;;;;21.99;71.42;99852.61;3532718;82;26508;-87
2022/07/26 05:18:09;;;;;;;9.20;4.58;;;;;;;22.00;71.65;99858.36;3520886;82;98683;-84
2022/07/26 05:23:10;;;;;;;7.42;4.10;;;;;;;21.98;71.33;99869.27;3517664;83;98772;-86
2022/07/26 05:28:11;;;;;;;7.80;4.17;;;;;;;22.00;71.38;99864.76;3523885;82;98641;-84
2022/07/26 05:33:12;;;;;;;9.85;4.08;;;;;;;21.93;71.12;99869.28;3548298;82;98746;-84
2022/07/26 05:38:13;;;;;;;10.25;4.00;;;;;;;21.94;71.17;99881.25;3539041;82;98746;-82
2022/07/26 05:43:14;;;;;;;8.97;3.90;;;;;;;21.95;71.09;99883.59;3543166;82;25839;-81
2022/07/26 05:48:15;;;;;;;7.83;4.17;;;;;;;21.94;71.24;99895.27;3486130;81;98981;-81
2022/07/26 05:53:16;;;;;;;9.33;3.50;;;;;;;21.97;71.35;99895.10;3435959;84;98653;-81
2022/07/26 05:58:17;;;;;;;10.03;4.70;;;;;;;22.01;70.90;99890.13;3447442;84;98685;-81
2022/07/26 06:03:21;;;;;;;6.20;3.40;;;;;;;22.02;70.63;99903.53;3447791;84;98911;-80
2022/07/26 06:08:24;;;;;;;10.20;3.73;;;;;;;22.04;70.35;99915.83;3426224;84;98841;-81
2022/07/26 06:13:25;;;;;;;7.17;3.22;;;;;;;22.09;70.02;99919.42;3444756;84;25915;-80
2022/07/26 06:18:26;;;;;;;5.00;2.43;;;;;;;22.17;69.64;99931.10;3432620;84;98698;-81
2022/07/26 06:23:27;;;;;;;6.78;2.70;;;;;;;22.23;68.75;99937.00;3448594;82;98582;-84
2022/07/26 06:28:28;;;;;;;5.55;2.52;;;;;;;22.26;68.62;99951.50;3441452;84;98719;-84
2022/07/26 06:33:29;;;;;;;5.62;2.98;;;;;;;22.29;68.14;99958.95;3444871;84;98650;-85
2022/07/26 06:38:30;;;;;;;8.03;3.30;;;;;;;22.32;68.18;99962.84;3433782;84;98854;-88
2022/07/26 06:43:31;;;;;;;8.15;3.30;;;;;;;22.34;68.00;99968.78;3439807;83;26608;-91
2022/07/26 06:48:34;;;;;;;8.28;3.40;;;;;;;22.30;68.17;99975.16;3489786;81;98571;-89
2022/07/26 06:53:36;;;;;;;12.70;3.47;;;;;;;22.36;68.37;99978.91;3511693;81;98548;-90
2022/07/26 06:58:36;;;;;;;8.03;3.33;;;;;;;22.40;68.42;99985.14;3522534;82;98892;-90
2022/07/26 07:03:38;;;;;;;9.93;3.87;;;;;;;22.48;68.23;99975.19;3559212;82;98575;-90
2022/07/26 07:08:39;;;;;;;8.03;3.05;;;;;;;22.57;68.46;99978.75;3547513;81;98740;-91
2022/07/26 07:13:40;;;;;;;8.38;3.60;;;;;;;22.67;68.26;99980.95;3563233;81;26450;-89
2022/07/26 07:18:41;;;;;;;8.73;3.73;;;;;;;22.82;68.03;99970.61;3550735;81;98554;-93
2022/07/26 07:23:41;;;;;;;8.23;3.17;;;;;;;23.00;67.66;99977.61;3555432;81;98513;-92
2022/07/26 07:28:42;;;;;;;8.75;3.80;;;;;;;23.13;67.49;99985.98;3554297;82;98829;-85
2022/07/26 07:33:43;;;;;;;7.97;3.72;;;;;;;23.19;67.07;99986.14;3557184;82;98665;-94
2022/07/26 07:38:45;;;;;;;8.30;3.80;;;;;;;23.34;67.20;99975.19;3566638;81;98143;-92
2022/07/26 07:43:46;;;;;;;7.20;3.08;;;;;;;23.44;66.77;99971.70;3572219;82;25327;-91
2022/07/26 07:48:50;;;;;;;10.25;3.25;;;;;;;23.75;66.34;99970.13;3556418;81;98363;-90
2022/07/26 07:53:55;;;;;;;10.40;3.27;;;;;;;23.99;65.72;99989.84;3545379;82;99175;-91
2022/07/26 07:58:56;;;;;;;7.83;2.90;;;;;;;24.26;64.70;99984.79;3549110;81;98748;-88
2022/07/26 08:03:57;;;;;;;7.37;2.87;;;;;;;24.34;63.90;99986.61;3553671;81;97834;-87
2022/07/26 08:08:57;;;;;;;9.20;2.70;;;;;;;24.45;63.05;99993.25;3549657;82;98705;-88
2022/07/26 08:13:58;;;;;;;6.95;2.77;;;;;;;24.71;63.22;99992.11;3559244;81;98651;-87
2022/07/26 08:18:59;;;;;;;9.55;2.67;;;;;;;25.17;62.53;100001.00;3562278;81;98344;-89
2022/07/26 08:24:00;;;;;;;6.60;2.75;;;;;;;25.44;60.74;100005.59;3557629;81;98721;-86
2022/07/26 08:29:01;;;;;;;9.98;2.85;;;;;;;25.57;60.48;100004.63;3549460;81;98790;-86
2022/07/26 08:34:03;;;;;;;6.42;2.45;;;;;;;25.88;59.46;100008.42;3543988;82;99267;-89
2022/07/26 08:39:04;;;;;;;6.50;2.58;;;;;;;26.22;59.53;100001.99;3546092;82;98918;-86
2022/07/26 08:44:07;;;;;;;7.60;2.60;;;;;;;26.63;58.36;100018.30;3562896;80;98794;-84
2022/07/26 08:49:11;;;;;;;8.50;3.37;;;;;;;26.80;57.06;100015.80;3561394;81;98822;-94
2022/07/26 08:54:14;;;;;;;7.58;3.12;;;;;;;27.13;56.87;100011.14;3561528;82;98623;-86
2022/07/26 08:59:18;;;;;;;7.55;2.92;;;;;;;27.16;55.13;100014.36;3551871;81;99119;-87
2022/07/26 09:04:29;;;;;;;9.15;2.80;;;;;;;27.21;54.12;100025.75;3555737;81;98924;-89
2022/07/26 09:09:35;;;;;;;9.38;3.05;;;;;;;27.19;53.59;100021.88;3558484;81;98857;-87
2022/07/26 09:14:38;;;;;;;6.30;2.08;;;;;;;27.00;53.07;100020.63;3555495;81;99366;-92
2022/07/26 09:19:39;;;;;;;6.55;2.33;;;;;;;27.06;53.38;100029.92;3558420;82;99112;-89
2022/07/26 09:24:46;;;;;;;7.95;2.35;;;;;;;27.16;52.67;100020.00;3568978;81;99023;-92
2022/07/26 09:29:53;;;;;;;5.97;2.08;;;;;;;27.35;52.26;100019.18;3561392;82;98921;-88
2022/07/26 09:35:16;;;;;;;5.40;2.22;;;;;;;27.48;51.09;100026.63;3560424;82;98890;-91
2022/07/26 09:40:18;;;;;;;6.42;2.98;;;;;;;27.32;51.63;100027.27;3564780;81;98833;-88
2022/07/26 09:45:20;;;;;;;6.20;2.67;;;;;;;27.36;51.10;100017.90;3555916;81;98887;-88
2022/07/26 09:50:26;;;;;;;8.85;2.65;;;;;;;27.80;51.27;100019.67;3549115;81;98917;-88
2022/07/26 09:55:28;;;;;;;8.58;2.70;;;;;;;27.76;49.01;100019.75;3582460;80;25876;-92
2022/07/26 10:00:32;;;;;;;5.53;2.45;;;;;;;27.69;48.47;100030.13;3563332;81;99146;-89
2022/07/26 10:05:34;;;;;;;5.95;2.47;;;;;;;27.69;48.75;100028.70;3578368;81;97877;-89
2022/07/26 10:10:43;;;;;;;9.70;2.85;;;;;;;27.79;48.62;100032.92;3543953;81;98880;-89
2022/07/26 10:15:49;;;;;;;6.35;2.52;;;;;;;27.98;49.08;100038.31;3574052;81;98915;-95
2022/07/26 10:20:50;;;;;;;5.10;2.10;;;;;;;27.96;48.21;100039.46;3556410;81;99308;-86
2022/07/26 10:25:52;;;;;;;8.45;2.08;;;;;;;28.12;47.42;100038.79;3571495;81;33207;-90
2022/07/26 10:31:25;;;;;;;7.47;3.77;;;;;;;28.09;46.74;100046.23;3537750;81;98672;-91
2022/07/26 10:36:31;;;;;;;5.65;2.60;;;;;;;28.11;46.38;100039.42;3529735;81;98841;-90
2022/07/26 10:41:43;;;;;;;7.28;2.12;;;;;;;28.47;46.56;100044.89;3553257;81;98657;-91
2022/07/26 10:47:11;;;;;;;5.00;2.25;;;;;;;28.72;45.85;100043.97;3565048;81;98554;-93
2022/07/26 10:52:20;;;;;;;5.72;2.40;;;;;;;28.59;44.80;100045.07;3573153;81;98775;-89
2022/07/26 10:57:24;;;;;;;5.17;2.67;;;;;;;28.67;44.65;100048.31;3568058;81;98878;-90
2022/07/26 11:02:30;;;;;;;5.67;2.85;;;;;;;28.86;43.88;100048.00;3570298;81;98974;-91
2022/07/26 11:07:31;;;;;;;8.05;2.40;;;;;;;29.06;45.63;100038.55;3549581;82;98659;-85
2022/07/26 11:12:32;;;;;;;7.22;2.33;;;;;;;29.34;44.49;100037.30;3521643;82;98577;-86
2022/07/26 11:18:21;;;;;;;7.50;2.37;;;;;;;29.66;43.48;100036.41;3599033;78;31744;-87
2022/07/26 11:23:34;;;;;;;2.92;2.00;;;;;;;29.55;42.92;100042.09;3468794;80;99050;-85
2022/07/26 11:28:55;;;;;;;3.17;1.77;;;;;;;29.60;41.65;100046.98;3443880;82;99114;-85
2022/07/26 11:33:56;;;;;;;5.72;2.17;;;;;;;29.69;41.79;100049.57;3451179;82;98808;-88
2022/07/26 11:38:59;;;;;;;4.30;1.80;;;;;;;29.95;41.33;100048.61;3434297;83;99453;-87
2022/07/26 11:44:01;;;;;;;3.65;1.72;;;;;;;29.88;40.88;100056.23;3478953;83;98980;-87
2022/07/26 11:49:06;;;;;;;4.15;1.75;;;;;;;29.80;40.39;100053.81;3437014;83;98848;-88
2022/07/26 11:54:07;;;;;;;3.37;1.45;;;;;;;29.41;40.65;100050.95;3549439;81;99288;-87
2022/07/26 11:59:12;;;;;;;4.10;1.87;;;;;;;28.97;40.48;100052.94;3519534;81;99312;-89
2022/07/26 12:04:26;;;;;;;5.40;1.87;;;;;;;28.73;40.65;100050.55;3503841;82;99322;-90
2022/07/26 12:09:35;;;;;;;5.50;2.10;;;;;;;28.59;40.56;100038.78;3492561;82;99228;-88
2022/07/26 12:14:38;;;;;;;5.42;1.50;;;;;;;28.36;41.46;100044.82;3469208;83;99157;-86
2022/07/26 12:19:40;;;;;;;11.80;2.20;;;;;;;28.52;42.46;100052.64;3447919;84;98751;-87
2022/07/26 12:24:46;;;;;;;4.83;1.85;;;;;;;28.86;43.16;100042.97;3450559;84;99268;-88
2022/07/26 12:29:57;;;;;;;4.70;1.50;;;;;;;28.85;41.50;100035.76;3475654;82;98772;-86
2022/07/26 12:35:02;;;;;;;7.20;1.82;;;;;;;28.82;42.13;100042.46;3482908;82;99240;-86
2022/07/26 12:40:16;;;;;;;5.20;1.55;;;;;;;28.83;40.93;100036.27;3502017;82;98816;-87
2022/07/26 12:45:24;;;;;;;3.70;1.80;;;;;;;28.61;41.37;100044.69;3501344;83;99197;-87
2022/07/26 12:50:28;;;;;;;5.40;1.72;;;;;;;28.76;42.35;100045.92;3498483;82;98802;-88
2022/07/26 12:55:29;;;;;;;4.17;1.65;;;;;;;28.85;42.26;100024.42;3539627;82;26023;-87
2022/07/26 13:00:31;;;;;;;5.70;1.57;;;;;;;28.91;42.65;100023.79;3543146;82;98978;-87
2022/07/26 13:05:32;;;;;;;5.12;1.50;;;;;;;28.88;41.26;100030.50;3555739;81;99009;-86
2022/07/26 13:10:33;;;;;;;4.95;1.50;;;;;;;28.79;41.76;100028.67;3545646;81;99412;-86
2022/07/26 13:15:34;;;;;;;4.83;1.60;;;;;;;29.02;40.80;100025.26;3536563;81;99143;-88
2022/07/26 13:20:37;;;;;;;4.80;1.30;;;;;;;29.26;40.93;100020.66;3498941;82;99190;-86
2022/07/26 13:25:38;;;;;;;5.70;1.50;;;;;;;29.64;40.29;100018.48;3514987;82;26279;-86
2022/07/26 13:30:41;;;;;;;3.37;1.00;;;;;;;29.75;39.72;100021.97;3508247;82;99089;-86
2022/07/26 13:35:42;;;;;;;2.87;1.07;;;;;;;29.71;39.35;100018.61;3513655;82;98747;-88
2022/07/26 13:40:43;;;;;;;3.52;0.98;;;;;;;29.64;38.90;100016.31;3515707;82;98801;-86
2022/07/26 13:45:44;;;;;;;2.85;1.15;;;;;;;29.71;38.73;100017.19;3516234;82;98825;-87
2022/07/26 13:50:45;;;;;;;4.42;1.57;;;;;;;29.60;39.08;100014.38;3515292;83;98895;-86
2022/07/26 13:55:46;;;;;;;2.60;1.20;;;;;;;29.65;39.39;100022.10;3515962;82;31850;-87
2022/07/26 14:00:48;;;;;;;4.65;1.47;;;;;;;29.76;39.44;100017.17;3506645;82;99047;-89
2022/07/26 14:05:49;;;;;;;3.72;1.20;;;;;;;29.79;39.25;100018.98;3513695;82;98944;-85
2022/07/26 14:10:50;;;;;;;4.42;1.52;;;;;;;29.72;39.03;100018.09;3514825;82;98865;-88
2022/07/26 14:15:51;;;;;;;3.45;1.27;;;;;;;29.61;38.83;100023.00;3518578;83;99438;-88
2022/07/26 14:20:52;;;;;;;4.53;1.37;;;;;;;29.55;38.79;100019.40;3495185;82;99077;-86
2022/07/26 14:25:54;;;;;;;3.52;1.72;;;;;;;29.78;39.36;100021.70;3526124;82;32475;-86
2022/07/26 14:30:55;;;;;;;5.22;1.55;;;;;;;29.99;39.24;100028.62;3503221;82;98584;-86
2022/07/26 14:35:56;;;;;;;2.25;1.15;;;;;;;30.25;38.90;100019.14;3506503;82;98937;-85
2022/07/26 14:40:57;;;;;;;4.22;1.32;;;;;;;30.27;39.15;100025.72;3511128;82;99551;-86
2022/07/26 14:45:58;;;;;;;2.90;1.47;;;;;;;30.21;38.39;100017.23;3530772;82;99557;-87
2022/07/26 14:50:59;;;;;;;2.55;1.07;;;;;;;29.91;38.55;100025.42;3529022;82;99283;-87
2022/07/26 14:56:00;;;;;;;2.72;1.15;;;;;;;29.53;38.35;100017.05;3531378;82;99146;-85
2022/07/26 15:01:01;;;;;;;2.12;1.17;;;;;;;29.23;39.44;100007.52;3522347;82;98532;-86
2022/07/26 15:06:02;;;;;;;3.30;1.40;;;;;;;29.10;40.16;100015.73;3531539;83;98735;-86
2022/07/26 15:11:04;;;;;;;3.15;1.40;;;;;;;29.03;40.27;100016.89;3524396;82;99163;-86
2022/07/26 15:16:06;;;;;;;3.72;1.60;;;;;;;28.94;40.52;100015.04;3540751;82;98991;-85
2022/07/26 15:21:06;;;;;;;3.50;1.30;;;;;;;28.81;40.62;100015.39;3557786;82;99265;-86
2022/07/26 15:26:08;;;;;;;3.67;1.60;;;;;;;28.70;40.80;100006.23;3562515;81;98856;-85
2022/07/26 15:31:10;;;;;;;4.00;1.35;;;;;;;28.42;40.47;100016.70;3560335;81;98573;-84
2022/07/26 15:36:11;;;;;;;4.28;1.52;;;;;;;28.24;40.93;100021.36;3564195;81;99132;-85
2022/07/26 15:41:13;;;;;;;2.83;1.30;;;;;;;27.85;40.66;100026.00;3554373;82;98347;-84
2022/07/26 15:46:13;;;;;;;4.80;1.47;;;;;;;27.59;41.32;100025.30;3562906;82;98529;-85
2022/07/26 15:51:15;;;;;;;3.75;1.55;;;;;;;27.56;41.74;100017.03;3555966;81;98899;-84
2022/07/26 15:56:16;;;;;;;3.27;1.27;;;;;;;27.53;42.01;100014.59;3567124;81;98874;-86
2022/07/26 16:01:17;;;;;;;3.08;1.20;;;;;;;27.46;42.18;100019.93;3564684;82;98657;-83
2022/07/26 16:06:18;;;;;;;2.65;1.32;;;;;;;27.31;42.26;100012.22;3559078;82;98685;-85
2022/07/26 16:11:19;;;;;;;4.25;1.50;;;;;;;27.26;42.72;100022.83;3553097;82;98842;-84
2022/07/26 16:16:20;;;;;;;3.17;1.47;;;;;;;27.26;42.80;100017.18;3564045;82;98896;-84
2022/07/26 16:21:21;;;;;;;4.58;1.80;;;;;;;27.19;43.00;100019.81;3553792;82;98902;-84
2022/07/26 16:26:22;;;;;;;4.90;1.30;;;;;;;27.09;43.18;100030.35;3565482;81;98823;-84
2022/07/26 16:31:23;;;;;;;3.40;1.52;;;;;;;27.01;43.47;100029.23;3554961;81;98219;-85
2022/07/26 16:36:25;;;;;;;5.95;1.60;;;;;;;26.87;43.78;100042.84;3558217;81;99206;-85
2022/07/26 16:41:27;;;;;;;5.47;1.55;;;;;;;26.73;43.78;100042.28;3551278;81;98653;-83
2022/07/26 16:46:29;;;;;;;6.40;1.87;;;;;;;26.58;43.93;100058.52;3567696;81;98952;-84
2022/07/26 16:51:30;;;;;;;5.35;1.62;;;;;;;26.41;44.68;100073.82;3555302;81;99230;-82
2022/07/26 16:56:31;;;;;;;8.10;2.05;;;;;;;26.13;45.35;100086.77;3567353;81;99042;-82
2022/07/26 17:01:32;;;;;;;6.72;1.50;;;;;;;25.85;45.73;100105.30;3561916;81;34849;-83
2022/07/26 17:06:33;;;;;;;5.60;1.50;;;;;;;25.23;46.83;100101.11;3550162;81;99039;-81
2022/07/26 17:11:34;;;;;;;3.83;1.30;;;;;;;25.23;46.83;100101.11;3544782;82;99054;-81
2022/07/26 17:16:36;;;;;;;4.65;1.40;;;;;;;25.11;48.29;100135.97;3548918;81;99205;-83
2022/07/26 17:21:37;;;;;;;3.80;1.30;;;;;;;24.86;48.73;100144.30;3535960;82;98776;-84
2022/07/26 17:26:38;;;;;;;6.60;1.50;;;;;;;24.58;49.27;100149.19;3518947;82;98873;-83
2022/07/26 17:31:39;;;;;;;4.22;1.60;;;;;;;24.31;49.90;100145.86;3526909;82;35323;-83
2022/07/26 17:36:40;;;;;;;4.08;1.30;;;;;;;24.12;50.58;100160.48;3515236;82;99010;-85
2022/07/26 17:41:43;;;;;;;3.98;1.50;;;;;;;23.89;51.01;100161.20;3514771;82;98710;-85
2022/07/26 17:46:44;;;;;;;4.50;1.30;;;;;;;23.75;51.76;100153.44;3519642;82;99377;-85
2022/07/26 17:51:45;;;;;;;3.25;1.65;;;;;;;23.61;52.14;100152.67;3523278;82;99194;-83
2022/07/26 17:56:46;;;;;;;3.03;1.40;;;;;;;23.39;52.70;100158.51;3519502;82;98953;-85
2022/07/26 18:01:48;;;;;;;2.90;1.50;;;;;;;23.25;53.07;100147.11;3519314;82;32437;-86
2022/07/26 18:06:49;;;;;;;3.77;1.50;;;;;;;23.13;53.50;100153.64;3514946;82;98624;-82
2022/07/26 18:11:50;;;;;;;2.67;1.17;;;;;;;23.07;54.04;100154.12;3543898;82;98997;-85
2022/07/26 18:16:51;;;;;;;2.45;1.20;;;;;;;22.97;54.42;100160.36;3512422;82;99030;-85
2022/07/26 18:21:53;;;;;;;1.57;1.20;;;;;;;22.87;54.51;100158.00;3554355;81;98869;-85
2022/07/26 18:26:53;;;;;;;3.95;1.40;;;;;;;22.78;54.92;100163.63;3539777;82;98920;-86
2022/07/26 18:31:58;;;;;;;2.35;1.30;;;;;;;22.71;55.65;100170.92;3547205;82;32472;-86
2022/07/26 18:36:57;;;;;;;2.67;1.30;;;;;;;22.65;56.66;100172.78;3536328;81;99043;-86
2022/07/26 18:41:59;;;;;;;4.17;2.08;;;;;;;22.59;57.47;100176.84;3555880;82;98308;-87
2022/07/26 18:47:00;;;;;;;4.22;1.65;;;;;;;22.56;57.92;100186.80;3536319;82;98864;-87
2022/07/26 18:52:02;;;;;;;3.72;1.50;;;;;;;22.49;58.28;100180.06;3536609;82;98774;-87
2022/07/26 18:57:03;;;;;;;2.80;1.55;;;;;;;22.43;58.69;100186.10;3537535;82;99154;-87
2022/07/26 19:02:06;;;;;;;4.35;1.70;;;;;;;22.35;58.99;100193.26;3537341;82;99184;-85
2022/07/26 19:07:07;;;;;;;3.37;1.67;;;;;;;22.29;59.79;100205.69;3524498;82;98799;-85
2022/07/26 19:12:08;;;;;;;3.50;1.40;;;;;;;22.23;60.20;100213.14;3533548;82;98688;-85
2022/07/26 19:17:10;;;;;;;5.55;1.87;;;;;;;22.14;60.26;100221.53;3537649;82;99033;-85
2022/07/26 19:22:11;;;;;;;3.40;1.65;;;;;;;22.06;60.60;100230.67;3538976;82;98878;-85
2022/07/26 19:27:14;;;;;;;4.53;1.95;;;;;;;21.94;60.99;100234.32;3522596;82;99169;-86
2022/07/26 19:32:15;;;;;;;4.05;2.05;;;;;;;21.82;61.46;100242.98;3531486;82;98018;-85
2022/07/26 19:37:19;;;;;;;6.15;2.35;;;;;;;21.72;61.67;100244.77;3522109;82;99026;-85
2022/07/26 19:42:19;;;;;;;4.10;1.85;;;;;;;21.58;62.53;100252.28;3542145;82;98647;-86
2022/07/26 19:47:20;;;;;;;4.45;2.02;;;;;;;21.50;62.88;100253.76;3532358;83;99292;-85
2022/07/26 19:52:21;;;;;;;3.47;1.85;;;;;;;21.43;63.37;100250.62;3534775;83;99214;-85
2022/07/26 19:57:23;;;;;;;6.08;2.40;;;;;;;21.38;63.89;100247.60;3528748;83;98962;-85
2022/07/26 20:02:24;;;;;;;6.55;2.22;;;;;;;21.35;64.13;100247.09;3533543;82;98761;-84
2022/07/26 20:07:25;;;;;;;4.30;1.98;;;;;;;21.32;64.42;100250.22;3530360;82;98777;-84
2022/07/26 20:12:26;;;;;;;5.87;2.10;;;;;;;21.27;64.83;100252.19;3518566;82;99113;-85
2022/07/26 20:17:32;;;;;;;5.58;2.00;;;;;;;21.26;65.30;100254.03;3520398;82;98771;-85
2022/07/26 20:22:30;;;;;;;5.37;2.20;;;;;;;21.23;65.67;100257.73;3484458;83;99312;-85
2022/07/26 20:27:32;;;;;;;6.08;2.72;;;;;;;21.18;65.63;100266.70;3481692;83;99293;-85
2022/07/26 20:32:33;;;;;;;4.85;2.10;;;;;;;21.11;65.99;100266.34;3502412;83;98773;-84
2022/07/26 20:37:35;;;;;;;7.35;2.70;;;;;;;21.07;66.33;100264.88;3474314;83;98837;-85
2022/07/26 20:42:36;;;;;;;4.83;2.15;;;;;;;21.00;66.44;100265.13;3505006;83;98664;-82
2022/07/26 20:47:39;;;;;;;5.55;2.52;;;;;;;20.94;66.89;100273.33;3483256;83;99111;-82
2022/07/26 20:52:40;;;;;;;6.40;2.70;;;;;;;20.87;67.22;100282.55;3494356;83;98881;-83
2022/07/26 20:57:41;;;;;;;5.00;2.00;;;;;;;20.76;67.28;100277.28;3411470;85;98794;-82
2022/07/26 21:02:42;;;;;;;6.33;2.47;;;;;;;20.71;67.77;100284.83;3447070;85;99357;-82
2022/07/26 21:07:43;;;;;;;6.08;2.22;;;;;;;20.64;68.21;100287.08;3411093;84;98898;-82
2022/07/26 21:12:44;;;;;;;7.17;2.30;;;;;;;20.55;68.47;100291.94;3446090;85;98805;-82
2022/07/26 21:17:45;;;;;;;5.03;2.35;;;;;;;20.49;68.61;100301.36;3451192;84;99135;-81
2022/07/26 21:22:46;;;;;;;4.08;2.50;;;;;;;20.41;68.99;100300.79;3501850;83;98801;-81
2022/07/26 21:27:47;;;;;;;4.90;2.60;;;;;;;20.34;69.23;100316.98;3504928;82;98918;-81
2022/07/26 21:32:48;;;;;;;6.05;2.77;;;;;;;20.28;69.52;100323.73;3442762;84;98990;-82
2022/07/26 21:37:49;;;;;;;7.33;3.45;;;;;;;20.19;69.59;100321.44;3509339;83;99154;-82
2022/07/26 21:42:50;;;;;;;7.87;2.70;;;;;;;20.12;70.06;100318.86;3483373;83;98548;-82
2022/07/26 21:47:55;;;;;;;5.90;2.87;;;;;;;20.07;70.36;100334.17;3508365;83;98735;-82
2022/07/26 21:52:55;;;;;;;7.58;3.33;;;;;;;20.02;70.55;100338.08;3491321;83;99258;-82
2022/07/26 21:57:56;;;;;;;8.30;2.83;;;;;;;19.94;70.49;100327.72;3498676;83;98907;-82
2022/07/26 22:02:58;;;;;;;5.03;2.70;;;;;;;19.88;71.33;100336.47;3489703;83;98851;-82
2022/07/26 22:07:59;;;;;;;6.77;2.50;;;;;;;19.82;71.37;100322.88;3504266;82;98844;-82
2022/07/26 22:13:02;;;;;;;5.77;2.80;;;;;;;19.78;71.59;100333.36;3405333;84;26090;-82
2022/07/26 22:18:03;;;;;;;5.97;3.08;;;;;;;19.70;71.88;100338.98;3493318;83;99124;-82
2022/07/26 22:23:11;;;;;;;5.55;2.72;;;;;;;19.61;72.21;100337.42;3499772;83;98918;-82
2022/07/26 22:28:12;;;;;;;5.58;2.75;;;;;;;19.62;72.58;100352.17;3409234;85;99663;-82
2022/07/26 22:33:13;;;;;;;6.33;3.23;;;;;;;19.58;72.81;100341.11;3481729;84;98851;-82
2022/07/26 22:38:15;;;;;;;6.60;3.53;;;;;;;19.58;72.98;100345.30;3482414;83;98891;-82
2022/07/26 22:43:16;;;;;;;6.97;4.30;;;;;;;19.57;73.02;100345.09;3495755;84;25922;-82
2022/07/26 22:48:17;;;;;;;8.30;4.17;;;;;;;19.48;72.98;100351.94;3556884;81;98876;-83
2022/07/26 22:53:18;;;;;;;5.93;3.57;;;;;;;19.40;72.99;100355.36;3560581;82;98818;-82
2022/07/26 22:58:19;;;;;;;4.30;2.70;;;;;;;19.31;73.25;100351.00;3556511;81;99127;-82
2022/07/26 23:03:20;;;;;;;5.50;2.83;;;;;;;19.22;73.42;100351.62;3568134;81;98878;-83
2022/07/26 23:08:21;;;;;;;6.27;3.17;;;;;;;19.17;73.39;100356.30;3570542;81;99056;-82
2022/07/26 23:13:22;;;;;;;6.53;3.17;;;;;;;19.11;73.79;100360.03;3572913;81;32891;-82
2022/07/26 23:18:23;;;;;;;5.80;3.47;;;;;;;19.02;74.06;100359.88;3570334;81;99106;-82
2022/07/26 23:23:24;;;;;;;5.00;3.07;;;;;;;18.93;74.33;100359.09;3590268;81;98936;-82
2022/07/26 23:28:26;;;;;;;6.17;2.90;;;;;;;18.88;74.57;100362.39;3577922;81;98857;-82